PWSweather.com
Personal Weather Stations
Station Observations
JOE4SPEED
Jupiter, Fl, Jupiter, FL 33458

Jupiter, FlJupiter, FL 33458

Lat: 26.9373, Lon: -80.1101

Elevation: 12

Station Type: Davis VP 2

http://www.joe4speed.com/wxindex.php

High Low Average
Temperature 86.3°F30.2°C 76.9°F24.9°C 80.6°F27.0°C
Dew Point 72.0°F22.2°C 64.4°F18.0°C 68.6°F20.3°C
Winds 9.6 mph 15.4 kmh 2.6 mph 4.2 kmh 5.0 mph ESE8.0 kmh ESE
Wind Gusts 16.0 mph25.7 kmh 3.0 mph4.8 kmh 9.0 mph14.5 kmh
Humidity 74% 58% 67%
Pressure 30.17 in1021.7 mb 30.09 in1019.0 mb -
Precipitation 0.00 in0.0 mm - -
Hour Temp Dew Point Humidity Winds Wind Gusts Pressure Precip Precip Rate Daily Precip Total
12:00 AM 78.1°F25.6°C 69.1°F20.6°C 74% 3.1 mph SE5.0 kmh SE 6.0 mph9.7 kmh 30.18 in1022.0 mb - 0.00 in0.0 mm 0.00 in0.0 mm
12:10 AM 78.0°F25.6°C 69.4°F20.8°C 75% 5.1 mph ENE8.2 kmh ENE 7.0 mph11.3 kmh 30.18 in1022.0 mb - 0.00 in0.0 mm 0.00 in0.0 mm
12:20 AM 78.1°F25.6°C 69.5°F20.8°C 75% 3.7 mph E6.0 kmh E 6.0 mph9.7 kmh 30.17 in1021.7 mb - 0.00 in0.0 mm 0.00 in0.0 mm
12:30 AM 77.9°F25.5°C 69.3°F20.7°C 75% 5.7 mph E9.2 kmh E 10.0 mph16.1 kmh 30.17 in1021.7 mb - 0.00 in0.0 mm 0.00 in0.0 mm
12:40 AM 78.0°F25.6°C 69.4°F20.8°C 75% 4.1 mph ESE6.6 kmh ESE 5.0 mph8.0 kmh 30.17 in1021.7 mb - 0.00 in0.0 mm 0.00 in0.0 mm
12:50 AM 77.9°F25.5°C 68.9°F20.5°C 74% 3.7 mph E6.0 kmh E 4.0 mph6.4 kmh 30.17 in1021.7 mb - 0.00 in0.0 mm 0.00 in0.0 mm
01:00 AM 77.8°F25.4°C 68.8°F20.4°C 74% 4.1 mph E6.6 kmh E 6.0 mph9.7 kmh 30.17 in1021.7 mb - 0.00 in0.0 mm 0.00 in0.0 mm
01:10 AM 77.7°F25.4°C 68.0°F20.0°C 72% 3.8 mph E6.1 kmh E 5.0 mph8.0 kmh 30.17 in1021.7 mb - 0.00 in0.0 mm 0.00 in0.0 mm
01:20 AM 77.7°F25.4°C 68.4°F20.2°C 73% 3.8 mph E6.1 kmh E 6.0 mph9.7 kmh 30.17 in1021.7 mb - 0.00 in0.0 mm 0.00 in0.0 mm
01:30 AM 77.6°F25.3°C 67.9°F19.9°C 72% 3.5 mph SE5.6 kmh SE 5.0 mph8.0 kmh 30.16 in1021.3 mb - 0.00 in0.0 mm 0.00 in0.0 mm
01:40 AM 77.5°F25.3°C 67.8°F19.9°C 72% 3.6 mph E5.8 kmh E 7.0 mph11.3 kmh 30.16 in1021.3 mb - 0.00 in0.0 mm 0.00 in0.0 mm
01:50 AM 77.5°F25.3°C 67.8°F19.9°C 72% 4.8 mph E7.7 kmh E 7.0 mph11.3 kmh 30.16 in1021.3 mb - 0.00 in0.0 mm 0.00 in0.0 mm
02:00 AM 77.5°F25.3°C 67.8°F19.9°C 72% 5.2 mph SE8.4 kmh SE 11.0 mph17.7 kmh 30.15 in1021.0 mb - 0.00 in0.0 mm 0.00 in0.0 mm
02:10 AM 77.5°F25.3°C 67.8°F19.9°C 72% 3.7 mph SE6.0 kmh SE 7.0 mph11.3 kmh 30.15 in1021.0 mb - 0.00 in0.0 mm 0.00 in0.0 mm
02:20 AM 77.3°F25.2°C 68.0°F20.0°C 73% 3.5 mph E5.6 kmh E 4.0 mph6.4 kmh 30.15 in1021.0 mb - 0.00 in0.0 mm 0.00 in0.0 mm
02:30 AM 77.4°F25.2°C 67.2°F19.6°C 71% 3.0 mph E4.8 kmh E 6.0 mph9.7 kmh 30.14 in1020.7 mb - 0.00 in0.0 mm 0.00 in0.0 mm
02:40 AM 77.3°F25.2°C 67.2°F19.6°C 71% 5.0 mph E8.0 kmh E 7.0 mph11.3 kmh 30.14 in1020.7 mb - 0.00 in0.0 mm 0.00 in0.0 mm
02:50 AM 77.3°F25.2°C 66.7°F19.3°C 70% 3.9 mph ESE6.3 kmh ESE 5.0 mph8.0 kmh 30.13 in1020.3 mb - 0.00 in0.0 mm 0.00 in0.0 mm
03:00 AM 77.2°F25.1°C 67.0°F19.4°C 71% 3.7 mph ESE6.0 kmh ESE 6.0 mph9.7 kmh 30.13 in1020.3 mb - 0.00 in0.0 mm 0.00 in0.0 mm
03:10 AM 77.1°F25.1°C 66.5°F19.2°C 70% 2.7 mph SE4.3 kmh SE 4.0 mph6.4 kmh 30.13 in1020.3 mb - 0.00 in0.0 mm 0.00 in0.0 mm
03:20 AM 76.9°F24.9°C 66.4°F19.1°C 70% 2.6 mph SE4.2 kmh SE 3.0 mph4.8 kmh 30.12 in1020.0 mb - 0.00 in0.0 mm 0.00 in0.0 mm
03:30 AM 76.9°F24.9°C 66.8°F19.3°C 71% 3.8 mph E6.1 kmh E 6.0 mph9.7 kmh 30.12 in1020.0 mb - 0.00 in0.0 mm 0.00 in0.0 mm
03:40 AM 76.9°F24.9°C 66.8°F19.3°C 71% 4.8 mph ESE7.7 kmh ESE 10.0 mph16.1 kmh 30.12 in1020.0 mb - 0.00 in0.0 mm 0.00 in0.0 mm
03:50 AM 77.1°F25.1°C 67.4°F19.7°C 72% 3.2 mph SE5.1 kmh SE 6.0 mph9.7 kmh 30.12 in1020.0 mb - 0.00 in0.0 mm 0.00 in0.0 mm
04:00 AM 77.2°F25.1°C 67.5°F19.7°C 72% 4.0 mph SE6.4 kmh SE 6.0 mph9.7 kmh 30.11 in1019.6 mb - 0.00 in0.0 mm 0.00 in0.0 mm
04:10 AM 77.1°F25.1°C 67.3°F19.6°C 72% 4.0 mph ESE6.4 kmh ESE 6.0 mph9.7 kmh 30.11 in1019.6 mb - 0.00 in0.0 mm 0.00 in0.0 mm
04:20 AM 77.2°F25.1°C 67.5°F19.7°C 72% 4.9 mph SE7.9 kmh SE 10.0 mph16.1 kmh 30.11 in1019.6 mb - 0.00 in0.0 mm 0.00 in0.0 mm
04:30 AM 77.3°F25.2°C 67.6°F19.8°C 72% 3.7 mph SSE6.0 kmh SSE 8.0 mph12.9 kmh 30.11 in1019.6 mb - 0.00 in0.0 mm 0.00 in0.0 mm
04:40 AM 77.3°F25.2°C 67.6°F19.8°C 72% 4.9 mph ESE7.9 kmh ESE 8.0 mph12.9 kmh 30.11 in1019.6 mb - 0.00 in0.0 mm 0.00 in0.0 mm
04:50 AM 77.4°F25.2°C 67.6°F19.8°C 72% 4.8 mph ESE7.7 kmh ESE 7.0 mph11.3 kmh 30.11 in1019.6 mb - 0.00 in0.0 mm 0.00 in0.0 mm
05:00 AM 77.3°F25.2°C 68.0°F20.0°C 73% 4.3 mph ESE6.9 kmh ESE 6.0 mph9.7 kmh 30.11 in1019.6 mb - 0.00 in0.0 mm 0.00 in0.0 mm
05:10 AM 77.4°F25.2°C 68.0°F20.0°C 73% 5.0 mph SE8.0 kmh SE 8.0 mph12.9 kmh 30.10 in1019.3 mb - 0.00 in0.0 mm 0.00 in0.0 mm
05:20 AM 77.5°F25.3°C 68.2°F20.1°C 73% 5.8 mph E9.3 kmh E 9.0 mph14.5 kmh 30.10 in1019.3 mb - 0.00 in0.0 mm 0.00 in0.0 mm
05:30 AM 77.5°F25.3°C 67.8°F19.9°C 72% 5.9 mph ENE9.5 kmh ENE 10.0 mph16.1 kmh 30.10 in1019.3 mb - 0.00 in0.0 mm 0.00 in0.0 mm
05:40 AM 77.6°F25.3°C 68.2°F20.1°C 73% 6.3 mph SE10.1 kmh SE 8.0 mph12.9 kmh 30.11 in1019.6 mb - 0.00 in0.0 mm 0.00 in0.0 mm
05:50 AM 77.5°F25.3°C 67.8°F19.9°C 72% 5.0 mph E8.0 kmh E 7.0 mph11.3 kmh 30.10 in1019.3 mb - 0.00 in0.0 mm 0.00 in0.0 mm
06:00 AM 77.3°F25.2°C 67.6°F19.8°C 72% 3.4 mph E5.5 kmh E 6.0 mph9.7 kmh 30.11 in1019.6 mb - 0.00 in0.0 mm 0.00 in0.0 mm
06:10 AM 77.1°F25.1°C 67.4°F19.7°C 72% 6.1 mph E9.8 kmh E 10.0 mph16.1 kmh 30.10 in1019.3 mb - 0.00 in0.0 mm 0.00 in0.0 mm
06:20 AM 77.1°F25.1°C 67.0°F19.4°C 71% 5.0 mph ESE8.0 kmh ESE 8.0 mph12.9 kmh 30.11 in1019.6 mb - 0.00 in0.0 mm 0.00 in0.0 mm
06:30 AM 77.1°F25.1°C 67.4°F19.7°C 72% 4.5 mph E7.2 kmh E 7.0 mph11.3 kmh 30.11 in1019.6 mb - 0.00 in0.0 mm 0.00 in0.0 mm
06:40 AM 77.1°F25.1°C 67.4°F19.7°C 72% 4.5 mph ENE7.2 kmh ENE 6.0 mph9.7 kmh 30.11 in1019.6 mb - 0.00 in0.0 mm 0.00 in0.0 mm
06:50 AM 77.2°F25.1°C 67.9°F19.9°C 73% 5.7 mph E9.2 kmh E 11.0 mph17.7 kmh 30.11 in1019.6 mb - 0.00 in0.0 mm 0.00 in0.0 mm
07:00 AM 77.4°F25.2°C 68.1°F20.1°C 73% 6.5 mph ESE10.5 kmh ESE 8.0 mph12.9 kmh 30.11 in1019.6 mb - 0.00 in0.0 mm 0.00 in0.0 mm
07:10 AM 77.6°F25.3°C 67.9°F19.9°C 72% 6.2 mph E10.0 kmh E 8.0 mph12.9 kmh 30.11 in1019.6 mb - 0.00 in0.0 mm 0.00 in0.0 mm
07:20 AM 77.6°F25.3°C 68.3°F20.2°C 73% 3.6 mph E5.8 kmh E 11.0 mph17.7 kmh 30.11 in1019.6 mb - 0.00 in0.0 mm 0.00 in0.0 mm
07:30 AM 78.0°F25.6°C 68.3°F20.2°C 72% 5.2 mph E8.4 kmh E 9.0 mph14.5 kmh 30.11 in1019.6 mb - 0.00 in0.0 mm 0.00 in0.0 mm
07:40 AM 78.3°F25.7°C 68.1°F20.1°C 71% 6.4 mph E10.3 kmh E 12.0 mph19.3 kmh 30.12 in1020.0 mb - 0.00 in0.0 mm 0.00 in0.0 mm
07:50 AM 78.9°F26.1°C 68.7°F20.4°C 71% 7.5 mph SE12.1 kmh SE 15.0 mph24.1 kmh 30.11 in1019.6 mb - 0.00 in0.0 mm 0.00 in0.0 mm
08:00 AM 79.7°F26.5°C 69.0°F20.6°C 70% 5.0 mph E8.0 kmh E 9.0 mph14.5 kmh 30.11 in1019.6 mb - 0.00 in0.0 mm 0.00 in0.0 mm
08:10 AM 79.9°F26.6°C 68.8°F20.4°C 69% 6.6 mph SE10.6 kmh SE 14.0 mph22.5 kmh 30.12 in1020.0 mb - 0.00 in0.0 mm 0.00 in0.0 mm
08:20 AM 79.8°F26.6°C 69.1°F20.6°C 70% 6.0 mph E9.7 kmh E 6.0 mph9.7 kmh 30.12 in1020.0 mb - 0.00 in0.0 mm 0.00 in0.0 mm
08:30 AM 80.3°F26.8°C 69.2°F20.7°C 69% 6.1 mph E9.8 kmh E 13.0 mph20.9 kmh 30.12 in1020.0 mb - 0.00 in0.0 mm 0.00 in0.0 mm
08:40 AM 81.0°F27.2°C 69.0°F20.6°C 67% 8.0 mph ESE12.9 kmh ESE 12.0 mph19.3 kmh 30.12 in1020.0 mb - 0.00 in0.0 mm 0.00 in0.0 mm
08:50 AM 81.8°F27.7°C 70.2°F21.2°C 68% 5.0 mph SE8.0 kmh SE 12.0 mph19.3 kmh 30.12 in1020.0 mb - 0.00 in0.0 mm 0.00 in0.0 mm
09:00 AM 81.9°F27.7°C 69.0°F20.6°C 65% 8.8 mph E14.2 kmh E 13.0 mph20.9 kmh 30.12 in1020.0 mb - 0.00 in0.0 mm 0.00 in0.0 mm
09:10 AM 82.2°F27.9°C 69.7°F20.9°C 66% 7.3 mph ENE11.7 kmh ENE 11.0 mph17.7 kmh 30.12 in1020.0 mb - 0.00 in0.0 mm 0.00 in0.0 mm
09:20 AM 82.4°F28.0°C 70.3°F21.3°C 67% 8.0 mph E12.9 kmh E 13.0 mph20.9 kmh 30.13 in1020.3 mb - 0.00 in0.0 mm 0.00 in0.0 mm
09:30 AM 82.2°F27.9°C 69.7°F20.9°C 66% 8.0 mph E12.9 kmh E 12.0 mph19.3 kmh 30.13 in1020.3 mb - 0.00 in0.0 mm 0.00 in0.0 mm
09:40 AM 81.9°F27.7°C 69.4°F20.8°C 66% 4.5 mph ESE7.2 kmh ESE 8.0 mph12.9 kmh 30.13 in1020.3 mb - 0.00 in0.0 mm 0.00 in0.0 mm
09:50 AM 82.5°F28.1°C 69.5°F20.8°C 65% 7.0 mph E11.3 kmh E 11.0 mph17.7 kmh 30.13 in1020.3 mb - 0.00 in0.0 mm 0.00 in0.0 mm
10:00 AM 83.0°F28.3°C 69.6°F20.9°C 64% 8.5 mph NE13.7 kmh NE 14.0 mph22.5 kmh 30.14 in1020.7 mb - 0.00 in0.0 mm 0.00 in0.0 mm
10:10 AM 83.4°F28.6°C 70.0°F21.1°C 64% 5.8 mph E9.3 kmh E 12.0 mph19.3 kmh 30.13 in1020.3 mb - 0.00 in0.0 mm 0.00 in0.0 mm
10:20 AM 84.1°F28.9°C 70.1°F21.2°C 63% 7.1 mph E11.4 kmh E 14.0 mph22.5 kmh 30.14 in1020.7 mb - 0.00 in0.0 mm 0.00 in0.0 mm
10:30 AM 84.4°F29.1°C 70.9°F21.6°C 64% 4.4 mph SE7.1 kmh SE 7.0 mph11.3 kmh 30.14 in1020.7 mb - 0.00 in0.0 mm 0.00 in0.0 mm
10:40 AM 84.7°F29.3°C 69.3°F20.7°C 60% 2.8 mph E4.5 kmh E 5.0 mph8.0 kmh 30.14 in1020.7 mb - 0.00 in0.0 mm 0.00 in0.0 mm
10:50 AM 84.8°F29.3°C 69.4°F20.8°C 60% 4.8 mph E7.7 kmh E 8.0 mph12.9 kmh 30.15 in1021.0 mb - 0.00 in0.0 mm 0.00 in0.0 mm
11:00 AM 85.3°F29.6°C 69.3°F20.7°C 59% 8.0 mph ESE12.9 kmh ESE 11.0 mph17.7 kmh 30.16 in1021.3 mb - 0.00 in0.0 mm 0.00 in0.0 mm
11:10 AM 85.3°F29.6°C 68.8°F20.4°C 58% 6.6 mph E10.6 kmh E 13.0 mph20.9 kmh 30.16 in1021.3 mb - 0.00 in0.0 mm 0.00 in0.0 mm
11:20 AM 85.3°F29.6°C 69.3°F20.7°C 59% 4.8 mph ESE7.7 kmh ESE 10.0 mph16.1 kmh 30.16 in1021.3 mb - 0.00 in0.0 mm 0.00 in0.0 mm
11:30 AM 85.1°F29.5°C 69.1°F20.6°C 59% 4.4 mph SE7.1 kmh SE 6.0 mph9.7 kmh 30.16 in1021.3 mb - 0.00 in0.0 mm 0.00 in0.0 mm
11:40 AM 84.6°F29.2°C 68.7°F20.4°C 59% 5.6 mph ESE9.0 kmh ESE 8.0 mph12.9 kmh 30.16 in1021.3 mb - 0.00 in0.0 mm 0.00 in0.0 mm
11:50 AM 84.4°F29.1°C 69.5°F20.8°C 61% 3.9 mph ESE6.3 kmh ESE 6.0 mph9.7 kmh 30.16 in1021.3 mb - 0.00 in0.0 mm 0.00 in0.0 mm
12:00 PM 84.7°F29.3°C 69.3°F20.7°C 60% 5.1 mph E8.2 kmh E 7.0 mph11.3 kmh 30.16 in1021.3 mb - 0.00 in0.0 mm 0.00 in0.0 mm
12:10 PM 85.7°F29.8°C 70.2°F21.2°C 60% 7.1 mph ESE11.4 kmh ESE 14.0 mph22.5 kmh 30.16 in1021.3 mb - 0.00 in0.0 mm 0.00 in0.0 mm
12:20 PM 85.2°F29.6°C 70.3°F21.3°C 61% 3.8 mph ESE6.1 kmh ESE 7.0 mph11.3 kmh 30.16 in1021.3 mb - 0.00 in0.0 mm 0.00 in0.0 mm
12:30 PM 85.7°F29.8°C 69.2°F20.7°C 58% 4.2 mph ESE6.8 kmh ESE 4.0 mph6.4 kmh 30.15 in1021.0 mb - 0.00 in0.0 mm 0.00 in0.0 mm
12:40 PM 85.2°F29.6°C 69.7°F20.9°C 60% 5.4 mph N8.7 kmh N 6.0 mph9.7 kmh 30.16 in1021.3 mb - 0.00 in0.0 mm 0.00 in0.0 mm
12:50 PM 85.6°F29.8°C 69.1°F20.6°C 58% 4.4 mph ESE7.1 kmh ESE 5.0 mph8.0 kmh 30.16 in1021.3 mb - 0.00 in0.0 mm 0.00 in0.0 mm
01:00 PM 85.4°F29.7°C 69.9°F21.1°C 60% 5.2 mph ESE8.4 kmh ESE 10.0 mph16.1 kmh 30.16 in1021.3 mb - 0.00 in0.0 mm 0.00 in0.0 mm
01:10 PM 85.8°F29.9°C 69.8°F21.0°C 59% 4.5 mph E7.2 kmh E 8.0 mph12.9 kmh 30.16 in1021.3 mb - 0.00 in0.0 mm 0.00 in0.0 mm
01:20 PM 86.0°F30.0°C 69.5°F20.8°C 58% 4.3 mph ENE6.9 kmh ENE 7.0 mph11.3 kmh 30.16 in1021.3 mb - 0.00 in0.0 mm 0.00 in0.0 mm
01:30 PM 86.3°F30.2°C 70.3°F21.3°C 59% 5.4 mph ESE8.7 kmh ESE 11.0 mph17.7 kmh 30.15 in1021.0 mb - 0.00 in0.0 mm 0.00 in0.0 mm
01:40 PM 84.8°F29.3°C 70.8°F21.6°C 63% 4.4 mph E7.1 kmh E 12.0 mph19.3 kmh 30.15 in1021.0 mb - 0.00 in0.0 mm 0.00 in0.0 mm
01:50 PM 84.0°F28.9°C 70.0°F21.1°C 63% 5.4 mph E8.7 kmh E 9.0 mph14.5 kmh 30.14 in1020.7 mb - 0.00 in0.0 mm 0.00 in0.0 mm
02:00 PM 84.2°F29.0°C 70.7°F21.5°C 64% 4.9 mph ENE7.9 kmh ENE 12.0 mph19.3 kmh 30.14 in1020.7 mb - 0.00 in0.0 mm 0.00 in0.0 mm
02:10 PM 84.7°F29.3°C 70.2°F21.2°C 62% 3.6 mph E5.8 kmh E 7.0 mph11.3 kmh 30.14 in1020.7 mb - 0.00 in0.0 mm 0.00 in0.0 mm
02:20 PM 84.6°F29.2°C 72.0°F22.2°C 66% 4.3 mph ESE6.9 kmh ESE 13.0 mph20.9 kmh 30.14 in1020.7 mb - 0.00 in0.0 mm 0.00 in0.0 mm
02:30 PM 83.2°F28.4°C 69.8°F21.0°C 64% 5.6 mph SSE9.0 kmh SSE 7.0 mph11.3 kmh 30.14 in1020.7 mb - 0.00 in0.0 mm 0.00 in0.0 mm
02:40 PM 83.3°F28.5°C 70.3°F21.3°C 65% 5.3 mph SE8.5 kmh SE 8.0 mph12.9 kmh 30.13 in1020.3 mb - 0.00 in0.0 mm 0.00 in0.0 mm
02:50 PM 84.6°F29.2°C 70.6°F21.4°C 63% 4.6 mph ENE7.4 kmh ENE 8.0 mph12.9 kmh 30.13 in1020.3 mb - 0.00 in0.0 mm 0.00 in0.0 mm
03:00 PM 85.1°F29.5°C 70.6°F21.4°C 62% 5.1 mph SE8.2 kmh SE 8.0 mph12.9 kmh 30.12 in1020.0 mb - 0.00 in0.0 mm 0.00 in0.0 mm
03:10 PM 85.0°F29.4°C 71.0°F21.7°C 63% 6.7 mph N10.8 kmh N 7.0 mph11.3 kmh 30.12 in1020.0 mb - 0.00 in0.0 mm 0.00 in0.0 mm
03:20 PM 83.9°F28.8°C 70.4°F21.3°C 64% 5.0 mph NE8.0 kmh NE 8.0 mph12.9 kmh 30.12 in1020.0 mb - 0.00 in0.0 mm 0.00 in0.0 mm
03:30 PM 85.2°F29.6°C 71.2°F21.8°C 63% 3.4 mph E5.5 kmh E 11.0 mph17.7 kmh 30.12 in1020.0 mb - 0.00 in0.0 mm 0.00 in0.0 mm
03:40 PM 84.0°F28.9°C 70.5°F21.4°C 64% 6.2 mph E10.0 kmh E 11.0 mph17.7 kmh 30.11 in1019.6 mb - 0.00 in0.0 mm 0.00 in0.0 mm
03:50 PM 84.5°F29.2°C 69.6°F20.9°C 61% 7.0 mph E11.3 kmh E 14.0 mph22.5 kmh 30.11 in1019.6 mb - 0.00 in0.0 mm 0.00 in0.0 mm
04:00 PM 84.3°F29.1°C 69.9°F21.1°C 62% 6.1 mph E9.8 kmh E 9.0 mph14.5 kmh 30.11 in1019.6 mb - 0.00 in0.0 mm 0.00 in0.0 mm
04:10 PM 84.3°F29.1°C 69.8°F21.0°C 62% 6.9 mph ESE11.1 kmh ESE 10.0 mph16.1 kmh 30.11 in1019.6 mb - 0.00 in0.0 mm 0.00 in0.0 mm
04:20 PM 84.8°F29.3°C 69.9°F21.1°C 61% 6.8 mph SE10.9 kmh SE 10.0 mph16.1 kmh 30.10 in1019.3 mb - 0.00 in0.0 mm 0.00 in0.0 mm
04:30 PM 84.3°F29.1°C 68.9°F20.5°C 60% 8.5 mph E13.7 kmh E 12.0 mph19.3 kmh 30.11 in1019.6 mb - 0.00 in0.0 mm 0.00 in0.0 mm
04:40 PM 84.6°F29.2°C 69.7°F20.9°C 61% 7.8 mph E12.6 kmh E 12.0 mph19.3 kmh 30.11 in1019.6 mb - 0.00 in0.0 mm 0.00 in0.0 mm
04:50 PM 84.8°F29.3°C 71.3°F21.8°C 64% 4.0 mph ESE6.4 kmh ESE 11.0 mph17.7 kmh 30.11 in1019.6 mb - 0.00 in0.0 mm 0.00 in0.0 mm
05:00 PM 84.5°F29.2°C 70.5°F21.4°C 63% 6.1 mph ENE9.8 kmh ENE 13.0 mph20.9 kmh 30.10 in1019.3 mb - 0.00 in0.0 mm 0.00 in0.0 mm
05:10 PM 84.6°F29.2°C 71.1°F21.7°C 64% 4.6 mph SE7.4 kmh SE 7.0 mph11.3 kmh 30.10 in1019.3 mb - 0.00 in0.0 mm 0.00 in0.0 mm
05:20 PM 84.0°F28.9°C 71.0°F21.7°C 65% 6.1 mph SE9.8 kmh SE 11.0 mph17.7 kmh 30.10 in1019.3 mb - 0.00 in0.0 mm 0.00 in0.0 mm
05:30 PM 83.8°F28.8°C 71.2°F21.8°C 66% 6.6 mph NW10.6 kmh NW 12.0 mph19.3 kmh 30.10 in1019.3 mb - 0.00 in0.0 mm 0.00 in0.0 mm
05:40 PM 83.2°F28.4°C 71.1°F21.7°C 67% 4.3 mph E6.9 kmh E 9.0 mph14.5 kmh 30.10 in1019.3 mb - 0.00 in0.0 mm 0.00 in0.0 mm
05:50 PM 82.6°F28.1°C 71.0°F21.7°C 68% 4.7 mph ENE7.6 kmh ENE 12.0 mph19.3 kmh 30.10 in1019.3 mb - 0.00 in0.0 mm 0.00 in0.0 mm
06:00 PM 83.2°F28.4°C 71.5°F21.9°C 68% 3.5 mph NW5.6 kmh NW 6.0 mph9.7 kmh 30.10 in1019.3 mb - 0.00 in0.0 mm 0.00 in0.0 mm
06:10 PM 82.9°F28.3°C 71.6°F22.0°C 69% 4.0 mph NE6.4 kmh NE 11.0 mph17.7 kmh 30.10 in1019.3 mb - 0.00 in0.0 mm 0.00 in0.0 mm
06:20 PM 82.2°F27.9°C 70.2°F21.2°C 67% 6.5 mph SE10.5 kmh SE 13.0 mph20.9 kmh 30.10 in1019.3 mb - 0.00 in0.0 mm 0.00 in0.0 mm
06:30 PM 81.5°F27.5°C 70.4°F21.3°C 69% 8.0 mph SE12.9 kmh SE 13.0 mph20.9 kmh 30.10 in1019.3 mb - 0.00 in0.0 mm 0.00 in0.0 mm
06:40 PM 81.2°F27.3°C 70.9°F21.6°C 71% 6.7 mph SE10.8 kmh SE 14.0 mph22.5 kmh 30.09 in1019.0 mb - 0.00 in0.0 mm 0.00 in0.0 mm
06:50 PM 81.1°F27.3°C 70.4°F21.3°C 70% 7.4 mph SE11.9 kmh SE 12.0 mph19.3 kmh 30.09 in1019.0 mb - 0.00 in0.0 mm 0.00 in0.0 mm
07:00 PM 80.9°F27.2°C 70.2°F21.2°C 70% 7.7 mph E12.4 kmh E 10.0 mph16.1 kmh 30.09 in1019.0 mb - 0.00 in0.0 mm 0.00 in0.0 mm
07:10 PM 80.8°F27.1°C 69.7°F20.9°C 69% 6.7 mph E10.8 kmh E 11.0 mph17.7 kmh 30.10 in1019.3 mb - 0.00 in0.0 mm 0.00 in0.0 mm
07:20 PM 80.4°F26.9°C 69.7°F20.9°C 70% 9.6 mph E15.4 kmh E 14.0 mph22.5 kmh 30.10 in1019.3 mb - 0.00 in0.0 mm 0.00 in0.0 mm
07:30 PM 80.0°F26.7°C 69.4°F20.8°C 70% 5.8 mph SE9.3 kmh SE 10.0 mph16.1 kmh 30.10 in1019.3 mb - 0.00 in0.0 mm 0.00 in0.0 mm
07:40 PM 79.8°F26.6°C 69.1°F20.6°C 70% 5.8 mph E9.3 kmh E 14.0 mph22.5 kmh 30.10 in1019.3 mb - 0.00 in0.0 mm 0.00 in0.0 mm
07:50 PM 79.6°F26.4°C 69.0°F20.6°C 70% 5.8 mph E9.3 kmh E 15.0 mph24.1 kmh 30.10 in1019.3 mb - 0.00 in0.0 mm 0.00 in0.0 mm
08:00 PM 79.3°F26.3°C 69.1°F20.6°C 71% 5.7 mph E9.2 kmh E 13.0 mph20.9 kmh 30.10 in1019.3 mb - 0.00 in0.0 mm 0.00 in0.0 mm
08:10 PM 79.0°F26.1°C 68.8°F20.4°C 71% 7.8 mph E12.6 kmh E 16.0 mph25.7 kmh 30.10 in1019.3 mb - 0.00 in0.0 mm 0.00 in0.0 mm
08:20 PM 78.8°F26.0°C 69.0°F20.6°C 72% 5.9 mph E9.5 kmh E 12.0 mph19.3 kmh 30.10 in1019.3 mb - 0.00 in0.0 mm 0.00 in0.0 mm
08:30 PM 78.8°F26.0°C 68.2°F20.1°C 70% 5.2 mph E8.4 kmh E 10.0 mph16.1 kmh 30.11 in1019.6 mb - 0.00 in0.0 mm 0.00 in0.0 mm
08:40 PM 78.6°F25.9°C 68.0°F20.0°C 70% 8.6 mph ESE13.8 kmh ESE 14.0 mph22.5 kmh 30.11 in1019.6 mb - 0.00 in0.0 mm 0.00 in0.0 mm
08:50 PM 78.5°F25.8°C 67.9°F19.9°C 70% 6.8 mph ESE10.9 kmh ESE 8.0 mph12.9 kmh 30.11 in1019.6 mb - 0.00 in0.0 mm 0.00 in0.0 mm
09:00 PM 78.5°F25.8°C 68.3°F20.2°C 71% 6.1 mph E9.8 kmh E 10.0 mph16.1 kmh 30.11 in1019.6 mb - 0.00 in0.0 mm 0.00 in0.0 mm
09:10 PM 78.3°F25.7°C 67.7°F19.8°C 70% 3.0 mph SE4.8 kmh SE 9.0 mph14.5 kmh 30.12 in1020.0 mb - 0.00 in0.0 mm 0.00 in0.0 mm
09:20 PM 78.3°F25.7°C 67.7°F19.8°C 70% 6.8 mph E10.9 kmh E 9.0 mph14.5 kmh 30.12 in1020.0 mb - 0.00 in0.0 mm 0.00 in0.0 mm
09:30 PM 78.3°F25.7°C 67.7°F19.8°C 70% 5.3 mph NE8.5 kmh NE 10.0 mph16.1 kmh 30.12 in1020.0 mb - 0.00 in0.0 mm 0.00 in0.0 mm
09:40 PM 78.2°F25.7°C 67.1°F19.5°C 69% 4.7 mph ESE7.6 kmh ESE 10.0 mph16.1 kmh 30.12 in1020.0 mb - 0.00 in0.0 mm 0.00 in0.0 mm
09:50 PM 78.1°F25.6°C 67.1°F19.5°C 69% 7.0 mph NE11.3 kmh NE 13.0 mph20.9 kmh 30.12 in1020.0 mb - 0.00 in0.0 mm 0.00 in0.0 mm
10:00 PM 78.1°F25.6°C 66.7°F19.3°C 68% 8.0 mph NE12.9 kmh NE 11.0 mph17.7 kmh 30.12 in1020.0 mb - 0.00 in0.0 mm 0.00 in0.0 mm
10:10 PM 78.2°F25.7°C 67.2°F19.6°C 69% 4.2 mph E6.8 kmh E 8.0 mph12.9 kmh 30.12 in1020.0 mb - 0.00 in0.0 mm 0.00 in0.0 mm
10:20 PM 78.2°F25.7°C 66.8°F19.3°C 68% 6.4 mph ESE10.3 kmh ESE 10.0 mph16.1 kmh 30.13 in1020.3 mb - 0.00 in0.0 mm 0.00 in0.0 mm
10:30 PM 78.1°F25.6°C 66.3°F19.1°C 67% 5.0 mph ENE8.0 kmh ENE 11.0 mph17.7 kmh 30.13 in1020.3 mb - 0.00 in0.0 mm 0.00 in0.0 mm
10:40 PM 78.2°F25.7°C 65.9°F18.8°C 66% 7.0 mph SE11.3 kmh SE 8.0 mph12.9 kmh 30.13 in1020.3 mb - 0.00 in0.0 mm 0.00 in0.0 mm
10:50 PM 78.2°F25.7°C 65.1°F18.4°C 64% 4.7 mph NE7.6 kmh NE 8.0 mph12.9 kmh 30.13 in1020.3 mb - 0.00 in0.0 mm 0.00 in0.0 mm
11:00 PM 78.1°F25.6°C 64.9°F18.3°C 64% 6.0 mph ESE9.7 kmh ESE 10.0 mph16.1 kmh 30.13 in1020.3 mb - 0.00 in0.0 mm 0.00 in0.0 mm
11:10 PM 78.0°F25.6°C 64.8°F18.2°C 64% 5.6 mph E9.0 kmh E 8.0 mph12.9 kmh 30.13 in1020.3 mb - 0.00 in0.0 mm 0.00 in0.0 mm
11:20 PM 77.8°F25.4°C 64.6°F18.1°C 64% 3.5 mph E5.6 kmh E 5.0 mph8.0 kmh 30.12 in1020.0 mb - 0.00 in0.0 mm 0.00 in0.0 mm
11:30 PM 77.6°F25.3°C 64.4°F18.0°C 64% 3.1 mph E5.0 kmh E 8.0 mph12.9 kmh 30.12 in1020.0 mb - 0.00 in0.0 mm 0.00 in0.0 mm
11:40 PM 77.4°F25.2°C 65.1°F18.4°C 66% 3.9 mph E6.3 kmh E 5.0 mph8.0 kmh 30.12 in1020.0 mb - 0.00 in0.0 mm 0.00 in0.0 mm
11:50 PM 77.2°F25.1°C 65.4°F18.6°C 67% 5.7 mph ENE9.2 kmh ENE 8.0 mph12.9 kmh 30.13 in1020.3 mb - 0.00 in0.0 mm 0.00 in0.0 mm